Time;durP1;ratioP1;P1;durP2;ratioP2;P2;SDS_P1;SDS_P2;PMS_P1;PMS_P2;Temp;Humidity;BMP_temperature;BMP_pressure;BME280_temperature;BME280_humidity;BME280_pressure;Samples;Min_cycle;Max_cycle;Signal;HPM_P1;HPM_P2
2021/10/17 00:01:16;;;;;;;8.27;2.88;;;;;;;;;;5049596;28;20398;-82
2021/10/17 00:03:42;;;;;;;4.43;2.40;;;;;;;;;;5050432;28;20106;-82
2021/10/17 00:06:09;;;;;;;5.18;3.03;;;;;;;;;;5053852;28;20063;-82
2021/10/17 00:08:35;;;;;;;5.97;2.78;;;;;;;;;;5051668;28;20486;-83
2021/10/17 00:11:02;;;;;;;4.57;2.75;;;;;;;;;;5047765;28;20068;-83
2021/10/17 00:13:28;;;;;;;4.43;3.05;;;;;;;;;;5050162;28;20060;-83
2021/10/17 00:15:56;;;;;;;6.28;3.03;;;;;;;;;;5056915;28;20053;-83
2021/10/17 00:18:23;;;;;;;6.05;2.85;;;;;;;;;;5054785;28;20047;-83
2021/10/17 00:20:50;;;;;;;6.50;3.35;;;;;;;;;;5055376;28;20102;-82
2021/10/17 00:23:16;;;;;;;5.95;3.35;;;;;;;;;;5053710;28;20045;-83
2021/10/17 00:25:43;;;;;;;5.22;2.85;;;;;;;;;;5057095;28;20382;-82
2021/10/17 00:28:09;;;;;;;4.35;2.42;;;;;;;;;;5055165;28;20045;-83
2021/10/17 00:30:36;;;;;;;5.32;2.85;;;;;;;;;;5055589;28;20091;-83
2021/10/17 00:33:04;;;;;;;5.15;2.50;;;;;;;;;;5055516;28;20061;-82
2021/10/17 00:35:31;;;;;;;5.57;3.25;;;;;;;;;;5055289;28;20041;-83
2021/10/17 00:37:57;;;;;;;4.78;3.03;;;;;;;;;;5050317;28;20042;-83
2021/10/17 00:40:24;;;;;;;5.00;2.70;;;;;;;;;;5055386;28;20045;-83
2021/10/17 00:42:51;;;;;;;5.60;3.20;;;;;;;;;;5054926;28;20488;-83
2021/10/17 00:45:19;;;;;;;5.53;3.65;;;;;;;;;;5056118;28;20052;-82
2021/10/17 00:47:46;;;;;;;6.82;3.58;;;;;;;;;;5055799;28;20045;-82
2021/10/17 00:50:14;;;;;;;8.40;3.88;;;;;;;;;;5055144;28;20051;-82
2021/10/17 00:52:43;;;;;;;6.13;3.53;;;;;;;;;;5047476;28;20060;-82
2021/10/17 00:55:12;;;;;;;6.70;3.95;;;;;;;;;;5054907;28;20041;-82
2021/10/17 00:57:40;;;;;;;6.00;3.20;;;;;;;;;;5059811;28;20041;-82
2021/10/17 01:00:08;;;;;;;6.07;3.30;;;;;;;;;;5056720;28;20045;-82
2021/10/17 01:02:34;;;;;;;5.45;3.15;;;;;;;;;;5054544;28;20049;-82
2021/10/17 01:05:01;;;;;;;6.07;3.10;;;;;;;;;;5053112;28;20052;-82
2021/10/17 01:07:28;;;;;;;5.30;2.55;;;;;;;;;;5052978;28;20518;-82
2021/10/17 01:09:55;;;;;;;5.03;3.15;;;;;;;;;;5053099;28;20068;-82
2021/10/17 01:12:22;;;;;;;5.28;3.40;;;;;;;;;;5052510;28;20056;-82
2021/10/17 01:14:48;;;;;;;4.97;2.95;;;;;;;;;;5053571;28;20056;-82
2021/10/17 01:17:15;;;;;;;4.47;3.00;;;;;;;;;;5052449;28;20060;-82
2021/10/17 01:19:46;;;;;;;4.85;2.72;;;;;;;;;;5050867;28;20049;-82
2021/10/17 01:22:14;;;;;;;7.80;3.58;;;;;;;;;;5054854;28;20048;-82
2021/10/17 01:24:40;;;;;;;6.00;3.42;;;;;;;;;;5054817;28;20048;-82
2021/10/17 01:27:07;;;;;;;5.13;3.10;;;;;;;;;;5055829;28;20048;-82
2021/10/17 01:29:33;;;;;;;5.60;3.15;;;;;;;;;;5055862;28;20037;-82
2021/10/17 01:32:00;;;;;;;6.93;3.22;;;;;;;;;;5056175;28;20052;-82
2021/10/17 01:34:27;;;;;;;4.93;3.40;;;;;;;;;;5055603;28;20099;-82
2021/10/17 01:36:55;;;;;;;5.63;3.58;;;;;;;;;;5045043;28;20037;-82
2021/10/17 01:39:23;;;;;;;6.28;3.33;;;;;;;;;;5054353;28;20044;-82
2021/10/17 01:41:50;;;;;;;6.38;3.67;;;;;;;;;;5051678;28;20053;-83
2021/10/17 01:44:24;;;;;;;6.20;3.33;;;;;;;;;;5051568;28;20045;-82
2021/10/17 01:46:50;;;;;;;6.20;3.13;;;;;;;;;;5050413;28;20064;-82
2021/10/17 01:49:17;;;;;;;4.40;3.03;;;;;;;;;;5052431;28;20099;-82
2021/10/17 01:51:43;;;;;;;4.43;2.65;;;;;;;;;;5058162;28;20045;-82
2021/10/17 01:54:11;;;;;;;6.00;3.17;;;;;;;;;;5057480;28;20049;-82
2021/10/17 01:56:38;;;;;;;5.20;3.35;;;;;;;;;;5057011;28;20091;-82
2021/10/17 01:59:05;;;;;;;5.13;3.05;;;;;;;;;;5057859;28;20520;-82
2021/10/17 02:01:32;;;;;;;4.28;2.40;;;;;;;;;;5053599;28;20052;-82
2021/10/17 02:04:00;;;;;;;5.00;2.63;;;;;;;;;;5050663;28;20048;-82
2021/10/17 02:06:27;;;;;;;5.55;2.97;;;;;;;;;;5057189;28;20045;-82
2021/10/17 02:08:53;;;;;;;6.65;2.55;;;;;;;;;;5055271;28;20048;-82
2021/10/17 02:11:21;;;;;;;5.07;2.88;;;;;;;;;;5055485;28;20041;-82
2021/10/17 02:13:48;;;;;;;4.93;2.97;;;;;;;;;;5056569;28;20137;-82
2021/10/17 02:16:15;;;;;;;6.80;3.30;;;;;;;;;;5057550;28;20073;-82
2021/10/17 02:18:41;;;;;;;8.75;3.03;;;;;;;;;;5047999;28;20080;-82
2021/10/17 02:21:08;;;;;;;5.13;2.60;;;;;;;;;;5057057;28;20400;-82
2021/10/17 02:23:34;;;;;;;6.32;2.75;;;;;;;;;;5056581;28;20041;-82
2021/10/17 02:26:01;;;;;;;5.93;2.78;;;;;;;;;;5050786;28;20057;-82
2021/10/17 02:28:29;;;;;;;6.03;3.17;;;;;;;;;;5058642;28;20132;-82
2021/10/17 02:30:55;;;;;;;7.18;3.00;;;;;;;;;;5053015;28;20045;-82
2021/10/17 02:33:22;;;;;;;4.93;2.67;;;;;;;;;;5054932;28;20064;-82
2021/10/17 02:35:48;;;;;;;4.50;2.95;;;;;;;;;;5050063;28;20045;-82
2021/10/17 02:38:15;;;;;;;6.90;2.60;;;;;;;;;;5047724;28;20624;-82
2021/10/17 02:40:42;;;;;;;5.95;2.75;;;;;;;;;;5047957;28;20440;-82
2021/10/17 02:43:08;;;;;;;4.10;2.60;;;;;;;;;;5057442;28;20052;-82
2021/10/17 02:45:37;;;;;;;5.50;3.00;;;;;;;;;;5052672;28;20046;-82
2021/10/17 02:48:04;;;;;;;4.75;3.17;;;;;;;;;;5046113;28;20048;-82
2021/10/17 02:50:30;;;;;;;4.57;2.55;;;;;;;;;;5053842;28;20049;-82
2021/10/17 02:52:57;;;;;;;4.13;2.35;;;;;;;;;;5054514;28;20065;-82
2021/10/17 02:55:24;;;;;;;4.43;2.70;;;;;;;;;;5053724;28;20726;-82
2021/10/17 02:57:50;;;;;;;5.18;2.60;;;;;;;;;;5055279;28;20052;-82
2021/10/17 03:00:18;;;;;;;6.40;2.63;;;;;;;;;;5056295;28;20048;-82
2021/10/17 03:02:46;;;;;;;5.20;2.90;;;;;;;;;;5050777;28;20037;-82
2021/10/17 03:05:12;;;;;;;4.75;2.40;;;;;;;;;;5052692;28;20049;-81
2021/10/17 03:07:39;;;;;;;5.80;2.90;;;;;;;;;;5049183;28;20045;-82
2021/10/17 03:10:06;;;;;;;4.85;2.65;;;;;;;;;;5051994;28;20132;-82
2021/10/17 03:12:33;;;;;;;6.00;3.20;;;;;;;;;;5054707;28;20063;-82
2021/10/17 03:15:00;;;;;;;5.68;3.20;;;;;;;;;;5055219;28;20595;-82
2021/10/17 03:17:26;;;;;;;4.68;3.05;;;;;;;;;;5053441;28;20052;-82
2021/10/17 03:19:54;;;;;;;5.75;3.10;;;;;;;;;;5051998;28;20460;-82
2021/10/17 03:22:21;;;;;;;4.68;2.83;;;;;;;;;;5049123;28;20037;-82
2021/10/17 03:24:47;;;;;;;4.47;2.85;;;;;;;;;;5055980;28;20045;-82
2021/10/17 03:27:14;;;;;;;5.30;3.15;;;;;;;;;;5052308;28;20382;-82
2021/10/17 03:29:40;;;;;;;5.40;3.10;;;;;;;;;;5043658;28;20077;-82
2021/10/17 03:32:07;;;;;;;4.75;2.92;;;;;;;;;;5048038;28;20440;-82
2021/10/17 03:34:34;;;;;;;4.50;2.88;;;;;;;;;;5050219;28;20706;-82
2021/10/17 03:37:02;;;;;;;5.18;2.70;;;;;;;;;;5049815;28;20045;-82
2021/10/17 03:39:28;;;;;;;6.65;3.30;;;;;;;;;;5042682;28;20094;-82
2021/10/17 03:41:55;;;;;;;5.35;3.13;;;;;;;;;;5053177;28;20049;-81
2021/10/17 03:44:21;;;;;;;5.78;3.33;;;;;;;;;;5055556;28;20506;-82
2021/10/17 03:46:47;;;;;;;5.35;3.10;;;;;;;;;;5063455;28;20416;-82
2021/10/17 03:49:14;;;;;;;5.10;3.08;;;;;;;;;;5060360;28;20060;-82
2021/10/17 03:51:41;;;;;;;6.47;3.60;;;;;;;;;;5047918;28;20048;-82
2021/10/17 03:54:08;;;;;;;6.47;2.95;;;;;;;;;;5054074;28;20064;-82
2021/10/17 03:56:35;;;;;;;6.47;3.50;;;;;;;;;;5053313;28;20048;-82
2021/10/17 03:59:01;;;;;;;4.70;2.60;;;;;;;;;;5049590;28;20052;-82
2021/10/17 04:01:30;;;;;;;7.95;2.92;;;;;;;;;;5052256;28;20474;-82
2021/10/17 04:03:56;;;;;;;6.18;3.88;;;;;;;;;;5010636;28;1095891;-82
2021/10/17 04:06:23;;;;;;;5.28;3.30;;;;;;;;;;5055081;28;20045;-82
2021/10/17 04:08:49;;;;;;;5.38;2.85;;;;;;;;;;5042627;28;20049;-82
2021/10/17 04:11:17;;;;;;;5.63;3.25;;;;;;;;;;5054561;28;20052;-82
2021/10/17 04:13:44;;;;;;;6.25;3.38;;;;;;;;;;5055083;28;20504;-82
2021/10/17 04:16:10;;;;;;;7.63;3.65;;;;;;;;;;5053580;28;20049;-82
2021/10/17 04:18:37;;;;;;;5.70;2.83;;;;;;;;;;5050237;28;20052;-82
2021/10/17 04:21:03;;;;;;;5.28;3.00;;;;;;;;;;5052373;28;20432;-82
2021/10/17 04:23:30;;;;;;;6.13;3.15;;;;;;;;;;5045335;28;20049;-82
2021/10/17 04:25:56;;;;;;;6.80;3.50;;;;;;;;;;5049329;28;20052;-82
2021/10/17 04:28:24;;;;;;;6.22;3.47;;;;;;;;;;5050864;28;20041;-82
2021/10/17 04:30:51;;;;;;;6.60;3.33;;;;;;;;;;5049916;28;20053;-82
2021/10/17 04:33:17;;;;;;;5.90;3.35;;;;;;;;;;5049635;28;21910;-81
2021/10/17 04:35:45;;;;;;;6.18;3.60;;;;;;;;;;5049071;28;20048;-82
2021/10/17 04:38:11;;;;;;;7.72;3.95;;;;;;;;;;5048617;28;20071;-82
2021/10/17 04:40:38;;;;;;;7.03;3.90;;;;;;;;;;5046193;28;20048;-82
2021/10/17 04:43:05;;;;;;;5.60;3.38;;;;;;;;;;5049643;28;20068;-82
2021/10/17 04:45:33;;;;;;;6.93;3.22;;;;;;;;;;5047985;28;20433;-82
2021/10/17 04:47:59;;;;;;;5.13;3.47;;;;;;;;;;5048851;28;20052;-82
2021/10/17 04:50:26;;;;;;;7.13;3.78;;;;;;;;;;5049577;28;20044;-82
2021/10/17 04:52:52;;;;;;;7.20;4.03;;;;;;;;;;5053958;28;20050;-82
2021/10/17 04:55:19;;;;;;;6.68;3.88;;;;;;;;;;5053145;28;20041;-82
2021/10/17 04:57:46;;;;;;;7.13;4.35;;;;;;;;;;5045834;28;20474;-82
2021/10/17 05:00:13;;;;;;;6.57;3.78;;;;;;;;;;5052132;28;20501;-82
2021/10/17 05:02:41;;;;;;;8.15;5.05;;;;;;;;;;5052455;28;20041;-82
2021/10/17 05:05:08;;;;;;;8.45;4.95;;;;;;;;;;5034751;28;20057;-82
2021/10/17 05:07:35;;;;;;;8.70;4.93;;;;;;;;;;5036718;28;20103;-82
2021/10/17 05:10:01;;;;;;;7.45;4.88;;;;;;;;;;5044759;28;20056;-82
2021/10/17 05:12:28;;;;;;;10.40;5.40;;;;;;;;;;5053944;28;20045;-81
2021/10/17 05:14:54;;;;;;;10.35;5.10;;;;;;;;;;5067076;28;20056;-82
2021/10/17 05:17:21;;;;;;;8.55;5.43;;;;;;;;;;5051985;28;20049;-82
2021/10/17 05:19:49;;;;;;;12.73;6.38;;;;;;;;;;5054181;28;20053;-82
2021/10/17 05:22:15;;;;;;;7.13;4.68;;;;;;;;;;5053451;28;20136;-81
2021/10/17 05:24:42;;;;;;;8.57;5.10;;;;;;;;;;5056977;28;20516;-82
2021/10/17 05:27:09;;;;;;;11.15;6.38;;;;;;;;;;5057298;28;20545;-82
2021/10/17 05:29:35;;;;;;;15.05;6.65;;;;;;;;;;5058385;28;20049;-82
2021/10/17 05:32:01;;;;;;;20.73;6.18;;;;;;;;;;5057821;28;20118;-82
2021/10/17 05:34:28;;;;;;;9.57;5.00;;;;;;;;;;5057714;28;20048;-82
2021/10/17 05:36:56;;;;;;;15.63;5.45;;;;;;;;;;5053308;28;20053;-82
2021/10/17 05:39:22;;;;;;;11.07;5.18;;;;;;;;;;5054678;28;20461;-82
2021/10/17 05:41:49;;;;;;;14.07;5.72;;;;;;;;;;5050215;28;20049;-82
2021/10/17 05:44:15;;;;;;;11.80;5.30;;;;;;;;;;5057414;28;20060;-82
2021/10/17 05:46:42;;;;;;;8.15;5.13;;;;;;;;;;5057797;28;20448;-82
2021/10/17 05:49:08;;;;;;;32.50;7.10;;;;;;;;;;5058460;28;20048;-82
2021/10/17 05:51:35;;;;;;;14.50;6.25;;;;;;;;;;5056020;28;20485;-82
2021/10/17 05:54:03;;;;;;;18.80;6.90;;;;;;;;;;5057477;28;20049;-82
2021/10/17 05:56:29;;;;;;;15.45;6.20;;;;;;;;;;5057129;28;20068;-82
2021/10/17 05:58:56;;;;;;;13.15;7.00;;;;;;;;;;5051063;28;20485;-82
2021/10/17 06:01:22;;;;;;;20.40;8.10;;;;;;;;;;5049187;28;20494;-82
2021/10/17 06:03:49;;;;;;;12.23;6.40;;;;;;;;;;5054955;28;20064;-82
2021/10/17 06:06:15;;;;;;;16.55;7.53;;;;;;;;;;5050009;28;20049;-81
2021/10/17 06:08:41;;;;;;;10.02;6.22;;;;;;;;;;5062417;28;20044;-82
2021/10/17 06:11:10;;;;;;;18.27;6.97;;;;;;;;;;5051479;28;20048;-82
2021/10/17 06:13:37;;;;;;;27.23;10.43;;;;;;;;;;5052353;28;20057;-82
2021/10/17 06:16:04;;;;;;;20.83;9.00;;;;;;;;;;5055407;28;20053;-82
2021/10/17 06:18:31;;;;;;;14.48;6.63;;;;;;;;;;5056011;28;20048;-82
2021/10/17 06:20:58;;;;;;;11.60;6.97;;;;;;;;;;5050223;28;20482;-82
2021/10/17 06:23:25;;;;;;;23.35;8.65;;;;;;;;;;5053057;28;20091;-82
2021/10/17 06:25:51;;;;;;;17.25;7.47;;;;;;;;;;5054668;28;20051;-82
2021/10/17 06:28:19;;;;;;;34.17;9.38;;;;;;;;;;5048289;28;20098;-81
2021/10/17 06:30:46;;;;;;;21.75;8.13;;;;;;;;;;5051292;28;20048;-81
2021/10/17 06:33:12;;;;;;;14.52;6.80;;;;;;;;;;5056790;28;20049;-81
2021/10/17 06:35:38;;;;;;;20.25;8.73;;;;;;;;;;5054747;28;20048;-82
2021/10/17 06:38:05;;;;;;;14.02;7.10;;;;;;;;;;5056600;28;20067;-82
2021/10/17 06:40:31;;;;;;;31.63;10.02;;;;;;;;;;5055960;28;20041;-82
2021/10/17 06:42:58;;;;;;;19.27;8.00;;;;;;;;;;5056263;28;20107;-82
2021/10/17 06:45:26;;;;;;;14.27;8.30;;;;;;;;;;5054769;28;20041;-81
2021/10/17 06:47:52;;;;;;;36.55;8.73;;;;;;;;;;5055984;28;20049;-82
2021/10/17 06:50:20;;;;;;;11.80;7.85;;;;;;;;;;5052634;28;20053;-81
2021/10/17 06:52:47;;;;;;;54.67;11.73;;;;;;;;;;5055443;28;20052;-82
2021/10/17 06:55:14;;;;;;;14.93;8.18;;;;;;;;;;5054646;28;20053;-82
2021/10/17 06:57:40;;;;;;;34.03;8.27;;;;;;;;;;5052011;28;20052;-82
2021/10/17 07:00:08;;;;;;;18.30;8.23;;;;;;;;;;5050355;28;20048;-82
2021/10/17 07:02:36;;;;;;;14.02;8.13;;;;;;;;;;5055527;28;20448;-82
2021/10/17 07:05:03;;;;;;;34.42;9.35;;;;;;;;;;5054054;28;20053;-82
2021/10/17 07:07:29;;;;;;;14.93;7.80;;;;;;;;;;5053951;28;20036;-82
2021/10/17 07:09:56;;;;;;;17.80;8.50;;;;;;;;;;5045546;28;20045;-82
2021/10/17 07:12:22;;;;;;;16.33;8.65;;;;;;;;;;5053261;28;20048;-81
2021/10/17 07:14:51;;;;;;;13.95;8.68;;;;;;;;;;5047950;28;20056;-82
2021/10/17 07:17:17;;;;;;;24.33;9.35;;;;;;;;;;5053895;28;20497;-81
2021/10/17 07:19:45;;;;;;;16.95;8.95;;;;;;;;;;5054656;28;20452;-82
2021/10/17 07:22:12;;;;;;;13.80;8.48;;;;;;;;;;5050914;28;20045;-82
2021/10/17 07:24:38;;;;;;;31.08;8.95;;;;;;;;;;5053315;28;20037;-81
2021/10/17 07:27:05;;;;;;;47.13;12.05;;;;;;;;;;5048113;28;20049;-82
2021/10/17 07:29:31;;;;;;;16.92;8.98;;;;;;;;;;5043829;28;20036;-81
2021/10/17 07:31:58;;;;;;;21.40;9.63;;;;;;;;;;5038977;28;20045;-82
2021/10/17 07:34:25;;;;;;;30.40;9.85;;;;;;;;;;5046216;28;20071;-82
2021/10/17 07:36:52;;;;;;;21.55;9.20;;;;;;;;;;5054516;28;20055;-81
2021/10/17 07:39:19;;;;;;;33.67;10.68;;;;;;;;;;5054631;28;20045;-82
2021/10/17 07:41:48;;;;;;;35.85;9.20;;;;;;;;;;5053755;28;20048;-82
2021/10/17 07:44:15;;;;;;;16.58;8.40;;;;;;;;;;5050832;28;20055;-82
2021/10/17 07:46:41;;;;;;;16.60;9.25;;;;;;;;;;5046979;28;20075;-82
2021/10/17 07:49:08;;;;;;;45.65;12.77;;;;;;;;;;5052356;28;20060;-82
2021/10/17 07:51:34;;;;;;;17.88;9.98;;;;;;;;;;5050620;28;20051;-82
2021/10/17 07:54:02;;;;;;;18.05;9.55;;;;;;;;;;5052987;28;20637;-82
2021/10/17 07:56:29;;;;;;;27.00;10.52;;;;;;;;;;5048534;28;20040;-82
2021/10/17 07:58:55;;;;;;;15.65;9.65;;;;;;;;;;5045455;28;20048;-81
2021/10/17 08:01:22;;;;;;;17.33;9.80;;;;;;;;;;5048827;28;20053;-81
2021/10/17 08:03:48;;;;;;;19.42;10.20;;;;;;;;;;5053627;28;20044;-82
2021/10/17 08:06:15;;;;;;;20.85;11.18;;;;;;;;;;5054536;28;20052;-81
2021/10/17 08:08:41;;;;;;;16.85;10.57;;;;;;;;;;5055384;28;20044;-82
2021/10/17 08:11:10;;;;;;;18.88;10.73;;;;;;;;;;5053444;28;20051;-82
2021/10/17 08:13:36;;;;;;;15.55;10.25;;;;;;;;;;5053264;28;20467;-82
2021/10/17 08:16:03;;;;;;;16.92;9.85;;;;;;;;;;5051654;28;20091;-82
2021/10/17 08:18:30;;;;;;;19.15;10.10;;;;;;;;;;5044306;28;20634;-82
2021/10/17 08:20:56;;;;;;;14.98;9.80;;;;;;;;;;5061202;28;20060;-82
2021/10/17 08:23:23;;;;;;;26.77;12.10;;;;;;;;;;5054904;28;20055;-87
2021/10/17 08:25:49;;;;;;;21.48;10.88;;;;;;;;;;5051822;28;20041;-82
2021/10/17 08:28:17;;;;;;;27.92;10.35;;;;;;;;;;5052135;28;20052;-82
2021/10/17 08:30:46;;;;;;;20.38;10.40;;;;;;;;;;5051107;28;20545;-83
2021/10/17 08:33:16;;;;;;;33.67;11.68;;;;;;;;;;5059670;28;20056;-83
2021/10/17 08:35:43;;;;;;;20.95;11.40;;;;;;;;;;5050675;28;20382;-82
2021/10/17 08:38:09;;;;;;;39.35;11.05;;;;;;;;;;5053944;28;20501;-82
2021/10/17 08:40:36;;;;;;;18.23;10.65;;;;;;;;;;5053316;28;20046;-81
2021/10/17 08:43:04;;;;;;;26.95;10.60;;;;;;;;;;5050122;28;20075;-80
2021/10/17 08:45:35;;;;;;;17.33;10.98;;;;;;;;;;5054026;28;20045;-81
2021/10/17 08:48:03;;;;;;;23.55;12.30;;;;;;;;;;5054802;28;20482;-80
2021/10/17 08:50:29;;;;;;;18.55;12.00;;;;;;;;;;5055084;28;20073;-82
2021/10/17 08:52:56;;;;;;;19.60;11.00;;;;;;;;;;5049541;28;20048;-81
2021/10/17 08:55:22;;;;;;;29.88;12.25;;;;;;;;;;5057388;28;20078;-80
2021/10/17 08:57:52;;;;;;;17.98;10.88;;;;;;;;;;5057710;28;20049;-80
2021/10/17 09:00:25;;;;;;;20.58;11.40;;;;;;;;;;5054258;28;20048;-82
2021/10/17 09:02:54;;;;;;;17.80;11.10;;;;;;;;;;5056068;28;20080;-82
2021/10/17 09:05:32;;;;;;;27.58;11.27;;;;;;;;;;5057228;28;20095;-81
2021/10/17 09:07:59;;;;;;;19.48;11.90;;;;;;;;;;5056628;28;20481;-81
2021/10/17 09:10:25;;;;;;;17.67;10.70;;;;;;;;;;5057100;28;20052;-81
2021/10/17 09:12:52;;;;;;;21.10;11.57;;;;;;;;;;5055596;28;20064;-84
2021/10/17 09:15:20;;;;;;;20.92;12.15;;;;;;;;;;5057061;28;20041;-82
2021/10/17 09:18:14;;;;;;;25.13;10.43;;;;;;;;;;5056495;28;20048;-82
2021/10/17 09:21:00;;;;;;;18.88;12.32;;;;;;;;;;5056596;28;20045;-81
2021/10/17 09:23:38;;;;;;;18.30;11.13;;;;;;;;;;5045081;28;20052;-80
2021/10/17 09:26:11;;;;;;;15.98;10.48;;;;;;;;;;5055764;28;20048;-81
2021/10/17 09:28:38;;;;;;;18.85;11.60;;;;;;;;;;5064345;28;20052;-82
2021/10/17 09:31:06;;;;;;;19.38;11.30;;;;;;;;;;5054866;28;20461;-82
2021/10/17 09:33:35;;;;;;;19.40;11.95;;;;;;;;;;5053970;28;20041;-82
2021/10/17 09:36:15;;;;;;;20.08;11.85;;;;;;;;;;5055975;28;20052;-82
2021/10/17 09:38:44;;;;;;;15.20;10.32;;;;;;;;;;5055959;28;20041;-81
2021/10/17 09:41:16;;;;;;;19.40;11.45;;;;;;;;;;5055442;28;20103;-81
2021/10/17 09:43:50;;;;;;;16.45;11.50;;;;;;;;;;5053759;28;20128;-80
2021/10/17 09:46:17;;;;;;;17.02;10.68;;;;;;;;;;5055481;28;20053;-81
2021/10/17 09:48:45;;;;;;;19.27;11.63;;;;;;;;;;5055722;28;20041;-81
2021/10/17 09:51:13;;;;;;;18.17;11.88;;;;;;;;;;5055868;28;20045;-80
2021/10/17 09:53:41;;;;;;;18.10;12.45;;;;;;;;;;5052622;28;20047;-79
2021/10/17 09:56:08;;;;;;;20.60;13.05;;;;;;;;;;5055369;28;20041;-82
2021/10/17 09:58:35;;;;;;;18.98;12.10;;;;;;;;;;5055052;28;20536;-81
2021/10/17 10:01:02;;;;;;;24.30;13.00;;;;;;;;;;5057053;28;20056;-81
2021/10/17 10:03:29;;;;;;;19.45;12.30;;;;;;;;;;5050172;28;20045;-81
2021/10/17 10:05:58;;;;;;;18.98;12.25;;;;;;;;;;5049452;28;20049;-82
2021/10/17 10:08:24;;;;;;;16.65;12.38;;;;;;;;;;5056217;28;20072;-83
2021/10/17 10:10:51;;;;;;;18.40;11.77;;;;;;;;;;5058852;28;20044;-82
2021/10/17 10:13:18;;;;;;;16.85;11.85;;;;;;;;;;5050246;28;20067;-82
2021/10/17 10:15:45;;;;;;;20.98;14.48;;;;;;;;;;5058109;28;20548;-83
2021/10/17 10:18:13;;;;;;;16.15;10.90;;;;;;;;;;5057436;28;20037;-82
2021/10/17 10:20:40;;;;;;;21.13;12.95;;;;;;;;;;5059897;28;20094;-82
2021/10/17 10:23:09;;;;;;;18.83;12.30;;;;;;;;;;5060020;28;20052;-82
2021/10/17 10:25:37;;;;;;;21.08;13.35;;;;;;;;;;5057394;28;20068;-82
2021/10/17 10:28:05;;;;;;;19.35;12.20;;;;;;;;;;5059756;28;20083;-82
2021/10/17 10:30:33;;;;;;;19.98;12.50;;;;;;;;;;5053031;28;20075;-82
2021/10/17 10:33:14;;;;;;;22.90;13.43;;;;;;;;;;5046639;28;20080;-82
2021/10/17 10:36:01;;;;;;;18.67;12.30;;;;;;;;;;5055013;28;20051;-82
2021/10/17 10:39:16;;;;;;;22.63;12.38;;;;;;;;;;5055663;28;20048;-82
2021/10/17 10:41:49;;;;;;;20.40;12.82;;;;;;;;;;5057351;28;20045;-82
2021/10/17 10:44:18;;;;;;;18.45;12.32;;;;;;;;;;5057937;28;20055;-82
2021/10/17 10:46:45;;;;;;;16.85;12.13;;;;;;;;;;5058469;28;20089;-82
2021/10/17 10:49:12;;;;;;;20.58;13.50;;;;;;;;;;5058221;28;20045;-82
2021/10/17 10:51:40;;;;;;;18.80;13.20;;;;;;;;;;5058837;28;20071;-82
2021/10/17 10:54:08;;;;;;;21.85;13.68;;;;;;;;;;5049680;28;20049;-82
2021/10/17 10:56:46;;;;;;;22.08;14.20;;;;;;;;;;5059065;28;20053;-82
2021/10/17 10:59:16;;;;;;;19.30;12.98;;;;;;;;;;5059919;28;20049;-82
2021/10/17 11:02:17;;;;;;;21.60;13.60;;;;;;;;;;5060023;28;20132;-83
2021/10/17 11:05:09;;;;;;;19.05;13.27;;;;;;;;;;5057157;28;20216;-83
2021/10/17 11:07:40;;;;;;;22.17;12.77;;;;;;;;;;5056153;28;20073;-82
2021/10/17 11:10:47;;;;;;;19.17;12.50;;;;;;;;;;5058802;28;20052;-83
2021/10/17 11:13:41;;;;;;;22.92;14.10;;;;;;;;;;5049794;28;20053;-82
2021/10/17 11:16:20;;;;;;;23.20;14.40;;;;;;;;;;5014187;28;20049;-82
2021/10/17 11:18:47;;;;;;;20.58;14.05;;;;;;;;;;5056917;28;20060;-82
2021/10/17 11:21:15;;;;;;;22.67;15.05;;;;;;;;;;5057840;28;20044;-83
2021/10/17 11:23:42;;;;;;;20.70;13.88;;;;;;;;;;5059515;28;20067;-83
2021/10/17 11:26:11;;;;;;;19.00;12.90;;;;;;;;;;5058227;28;20067;-83
2021/10/17 11:28:51;;;;;;;24.27;14.20;;;;;;;;;;5058030;28;20056;-81
2021/10/17 11:31:23;;;;;;;19.88;13.80;;;;;;;;;;5052235;28;20558;-81
2021/10/17 11:33:50;;;;;;;20.00;13.07;;;;;;;;;;5054926;28;20045;-79
2021/10/17 11:36:18;;;;;;;19.45;13.13;;;;;;;;;;5057273;28;20056;-79
2021/10/17 11:38:46;;;;;;;20.40;13.85;;;;;;;;;;5056575;28;20045;-80
2021/10/17 11:41:14;;;;;;;20.02;13.85;;;;;;;;;;5057532;28;20053;-80
2021/10/17 11:43:42;;;;;;;17.20;12.75;;;;;;;;;;5049161;28;20410;-80
2021/10/17 11:46:12;;;;;;;18.77;13.20;;;;;;;;;;5053131;28;20489;-81
2021/10/17 11:48:41;;;;;;;24.63;15.15;;;;;;;;;;5050005;28;20041;-81
2021/10/17 11:51:10;;;;;;;21.73;14.88;;;;;;;;;;5055421;28;20061;-81
2021/10/17 11:53:38;;;;;;;19.90;13.93;;;;;;;;;;5055288;28;20103;-81
2021/10/17 11:56:09;;;;;;;22.42;13.95;;;;;;;;;;5058449;28;20051;-80
2021/10/17 11:58:36;;;;;;;23.55;14.38;;;;;;;;;;5054625;28;20079;-81
2021/10/17 12:01:08;;;;;;;18.77;12.32;;;;;;;;;;5056232;28;20041;-81
2021/10/17 12:03:35;;;;;;;24.95;13.98;;;;;;;;;;5058488;28;20041;-81
2021/10/17 12:06:03;;;;;;;19.27;13.18;;;;;;;;;;5055632;28;20048;-80
2021/10/17 12:08:31;;;;;;;20.40;14.30;;;;;;;;;;5056197;28;20043;-81
2021/10/17 12:10:59;;;;;;;21.83;13.73;;;;;;;;;;5055692;28;20521;-81
2021/10/17 12:13:27;;;;;;;19.67;13.65;;;;;;;;;;5055636;28;20060;-81
2021/10/17 12:16:05;;;;;;;19.60;13.70;;;;;;;;;;5056085;28;20079;-81
2021/10/17 12:18:32;;;;;;;18.38;14.27;;;;;;;;;;5055327;28;20048;-81
2021/10/17 12:20:59;;;;;;;18.83;13.30;;;;;;;;;;5055442;28;20060;-81
2021/10/17 12:23:27;;;;;;;18.67;12.88;;;;;;;;;;5055357;28;20045;-81
2021/10/17 12:25:53;;;;;;;18.20;13.18;;;;;;;;;;5055290;28;20056;-81
2021/10/17 12:28:20;;;;;;;18.45;12.80;;;;;;;;;;5055477;28;20094;-80
2021/10/17 12:30:49;;;;;;;17.67;13.73;;;;;;;;;;5056229;28;20453;-81
2021/10/17 12:33:25;;;;;;;17.13;12.95;;;;;;;;;;5055135;28;20048;-80
2021/10/17 12:35:52;;;;;;;18.15;14.15;;;;;;;;;;5054436;28;20072;-81
2021/10/17 12:38:18;;;;;;;21.05;13.35;;;;;;;;;;5054774;28;20041;-81
2021/10/17 12:40:53;;;;;;;18.52;13.30;;;;;;;;;;5055902;28;20048;-81
2021/10/17 12:43:25;;;;;;;18.20;12.57;;;;;;;;;;5062914;28;20048;-82
2021/10/17 12:45:52;;;;;;;21.67;15.60;;;;;;;;;;5056521;28;20083;-81
2021/10/17 12:48:33;;;;;;;18.67;13.75;;;;;;;;;;5056635;28;20489;-81
2021/10/17 12:50:59;;;;;;;19.63;13.65;;;;;;;;;;5044158;28;20076;-82
2021/10/17 12:53:27;;;;;;;17.73;13.10;;;;;;;;;;5059117;28;20040;-82
2021/10/17 12:55:58;;;;;;;18.92;13.98;;;;;;;;;;5058011;28;20057;-82
2021/10/17 12:58:26;;;;;;;19.77;14.02;;;;;;;;;;5055311;28;20411;-81
2021/10/17 13:01:01;;;;;;;17.60;13.68;;;;;;;;;;5056803;28;20117;-81
2021/10/17 13:03:28;;;;;;;18.10;12.60;;;;;;;;;;5058521;28;20397;-81
2021/10/17 13:05:55;;;;;;;17.95;13.10;;;;;;;;;;5057934;28;20044;-81
2021/10/17 13:08:23;;;;;;;19.20;13.90;;;;;;;;;;5057915;28;20405;-81
2021/10/17 13:10:50;;;;;;;18.42;13.32;;;;;;;;;;5057449;28;20460;-81
2021/10/17 13:13:20;;;;;;;16.35;12.70;;;;;;;;;;5055587;28;20072;-81
2021/10/17 13:15:50;;;;;;;17.38;13.25;;;;;;;;;;5057418;28;20053;-81
2021/10/17 13:18:17;;;;;;;16.20;12.27;;;;;;;;;;5055811;28;20098;-79
2021/10/17 13:20:44;;;;;;;15.20;12.25;;;;;;;;;;5056252;28;20041;-80
2021/10/17 13:23:12;;;;;;;14.55;12.07;;;;;;;;;;5055977;28;20478;-80
2021/10/17 13:25:40;;;;;;;15.98;12.60;;;;;;;;;;5056478;28;20105;-80
2021/10/17 13:28:08;;;;;;;17.20;13.07;;;;;;;;;;5055537;28;20563;-82
2021/10/17 13:30:36;;;;;;;17.77;13.02;;;;;;;;;;5056341;28;20048;-80
2021/10/17 13:33:03;;;;;;;15.68;13.32;;;;;;;;;;5055628;28;20056;-80
2021/10/17 13:35:30;;;;;;;16.45;12.75;;;;;;;;;;5054742;28;20052;-80
2021/10/17 13:37:57;;;;;;;16.30;12.63;;;;;;;;;;5035267;28;20087;-80
2021/10/17 13:40:24;;;;;;;16.55;12.10;;;;;;;;;;5037219;28;20069;-80
2021/10/17 13:42:51;;;;;;;18.50;12.88;;;;;;;;;;5055541;28;20056;-80
2021/10/17 13:45:17;;;;;;;16.10;12.20;;;;;;;;;;5059066;28;20044;-80
2021/10/17 13:47:45;;;;;;;17.67;12.52;;;;;;;;;;5059367;28;20068;-80
2021/10/17 13:50:12;;;;;;;15.90;12.05;;;;;;;;;;5059211;28;20068;-80
2021/10/17 13:52:39;;;;;;;22.58;12.18;;;;;;;;;;5057338;28;20394;-80
2021/10/17 13:55:06;;;;;;;14.88;11.82;;;;;;;;;;5059552;28;20102;-80
2021/10/17 13:57:33;;;;;;;14.18;11.50;;;;;;;;;;5058079;28;20846;-80
2021/10/17 14:00:00;;;;;;;15.13;11.02;;;;;;;;;;5057993;28;20052;-80
2021/10/17 14:02:26;;;;;;;17.35;11.20;;;;;;;;;;5052634;28;20045;-80
2021/10/17 14:04:54;;;;;;;15.18;10.98;;;;;;;;;;5057015;28;20044;-80
2021/10/17 14:07:21;;;;;;;15.63;11.63;;;;;;;;;;5058032;28;20456;-79
2021/10/17 14:09:47;;;;;;;17.23;12.23;;;;;;;;;;5058193;28;20403;-80
2021/10/17 14:12:13;;;;;;;15.50;11.45;;;;;;;;;;5057052;28;20049;-80
2021/10/17 14:14:40;;;;;;;15.75;12.10;;;;;;;;;;5058342;28;20041;-81
2021/10/17 14:17:06;;;;;;;16.33;11.65;;;;;;;;;;5058128;28;20041;-80
2021/10/17 14:19:33;;;;;;;16.10;12.25;;;;;;;;;;5058704;28;20155;-80
2021/10/17 14:22:01;;;;;;;13.93;11.32;;;;;;;;;;5057956;28;20049;-81
2021/10/17 14:24:27;;;;;;;12.73;10.77;;;;;;;;;;5058827;28;20048;-81
2021/10/17 14:26:53;;;;;;;15.48;11.55;;;;;;;;;;5058096;28;20049;-81
2021/10/17 14:29:20;;;;;;;13.00;10.60;;;;;;;;;;5058042;28;20053;-81
2021/10/17 14:31:46;;;;;;;13.20;9.95;;;;;;;;;;5057278;28;20064;-81
2021/10/17 14:34:13;;;;;;;14.85;11.75;;;;;;;;;;5058929;28;20076;-82